createdAt,value
2023-05-25T00:00:53.358Z,13.44
2023-05-25T00:03:28.170Z,13.54
2023-05-25T00:05:54.946Z,13.44
2023-05-25T00:08:21.463Z,13.37
2023-05-25T00:10:47.892Z,13.35
2023-05-25T00:13:14.368Z,13.14
2023-05-25T00:15:40.973Z,13.40
2023-05-25T00:18:07.747Z,13.19
2023-05-25T00:20:35.293Z,13.40
2023-05-25T00:23:02.465Z,13.36
2023-05-25T00:25:29.411Z,13.16
2023-05-25T00:27:55.959Z,13.19
2023-05-25T00:30:22.469Z,13.29
2023-05-25T00:32:48.985Z,12.86
2023-05-25T00:35:15.728Z,13.13
2023-05-25T00:37:42.228Z,13.20
2023-05-25T00:40:14.441Z,13.18
2023-05-25T00:42:41.230Z,13.14
2023-05-25T00:45:08.171Z,13.01
2023-05-25T00:47:34.686Z,13.02
2023-05-25T00:50:02.069Z,13.01
2023-05-25T00:52:28.828Z,12.59
2023-05-25T00:54:59.040Z,12.93
2023-05-25T00:57:28.163Z,12.76
2023-05-25T00:59:57.718Z,12.63
2023-05-25T01:02:26.082Z,12.77
2023-05-25T01:05:00.091Z,12.83
2023-05-25T01:07:27.716Z,12.84
2023-05-25T01:09:58.658Z,12.80
2023-05-25T01:12:28.356Z,12.41
2023-05-25T01:14:55.955Z,12.34
2023-05-25T01:17:22.818Z,12.75
2023-05-25T01:20:01.650Z,12.60
2023-05-25T01:22:43.349Z,12.26
2023-05-25T01:25:17.667Z,12.66
2023-05-25T01:27:57.289Z,12.18
2023-05-25T01:30:26.300Z,12.54
2023-05-25T01:32:54.577Z,12.69
2023-05-25T01:35:22.115Z,12.63
2023-05-25T01:37:49.952Z,12.67
2023-05-25T01:40:16.446Z,12.70
2023-05-25T01:42:42.964Z,12.59
2023-05-25T01:45:10.711Z,12.49
2023-05-25T01:47:57.548Z,12.51
2023-05-25T01:50:42.163Z,12.13
2023-05-25T01:53:19.523Z,12.53
2023-05-25T01:55:57.367Z,12.49
2023-05-25T01:58:25.795Z,12.44
2023-05-25T02:00:52.747Z,12.39
2023-05-25T02:03:20.455Z,12.29
2023-05-25T02:05:47.376Z,12.33
2023-05-25T02:08:13.840Z,12.32
2023-05-25T02:10:40.281Z,12.03
2023-05-25T02:13:06.705Z,12.07
2023-05-25T02:15:33.764Z,12.31
2023-05-25T02:18:00.918Z,11.95
2023-05-25T02:20:28.474Z,12.18
2023-05-25T02:22:55.062Z,12.21
2023-05-25T02:25:21.533Z,12.10
2023-05-25T02:27:47.971Z,12.05
2023-05-25T02:30:14.845Z,12.11
2023-05-25T02:32:41.498Z,11.92
2023-05-25T02:35:08.353Z,12.09
2023-05-25T02:37:34.855Z,11.86
2023-05-25T02:40:01.296Z,11.66
2023-05-25T02:42:27.718Z,11.91
2023-05-25T02:44:54.165Z,11.71
2023-05-25T02:47:21.636Z,11.94
2023-05-25T02:49:48.191Z,11.93
2023-05-25T02:52:14.645Z,11.61
2023-05-25T02:54:41.742Z,11.72
2023-05-25T02:57:08.603Z,11.44
2023-05-25T02:59:35.125Z,11.63
2023-05-25T03:02:01.636Z,11.20
2023-05-25T03:04:28.495Z,11.51
2023-05-25T03:06:54.955Z,11.73
2023-05-25T03:09:21.538Z,11.76
2023-05-25T03:11:48.021Z,11.75
2023-05-25T03:14:14.576Z,11.61
2023-05-25T03:16:41.214Z,11.63
2023-05-25T03:19:08.488Z,11.72
2023-05-25T03:21:34.933Z,11.56
2023-05-25T03:24:01.379Z,11.56
2023-05-25T03:26:28.955Z,11.42
2023-05-25T03:28:55.474Z,11.31
2023-05-25T03:31:22.945Z,11.52
2023-05-25T03:33:49.382Z,11.54
2023-05-25T03:36:17.533Z,11.56
2023-05-25T03:38:45.065Z,11.52
2023-05-25T03:41:11.505Z,11.55
2023-05-25T03:43:37.927Z,11.64
2023-05-25T03:46:04.436Z,11.59
2023-05-25T03:48:31.117Z,11.68
2023-05-25T03:50:57.538Z,11.71
2023-05-25T03:53:23.962Z,11.64
2023-05-25T03:55:52.165Z,11.61
2023-05-25T03:58:18.974Z,11.56
2023-05-25T04:00:45.881Z,11.33
2023-05-25T04:03:12.503Z,11.36
2023-05-25T04:05:39.028Z,11.52
2023-05-25T04:08:06.913Z,11.60
2023-05-25T04:10:33.483Z,11.51
2023-05-25T04:12:59.930Z,11.22
2023-05-25T04:15:26.710Z,11.58
2023-05-25T04:17:53.333Z,11.55
2023-05-25T04:20:19.939Z,11.45
2023-05-25T04:22:46.407Z,12.06
2023-05-25T04:25:13.255Z,12.16
2023-05-25T04:27:40.655Z,13.12
2023-05-25T04:30:08.607Z,13.28
2023-05-25T04:32:37.376Z,13.83
2023-05-25T04:35:05.495Z,14.14
2023-05-25T04:37:33.267Z,14.28
2023-05-25T04:40:00.094Z,14.48
2023-05-25T04:42:26.934Z,14.58
2023-05-25T04:44:55.664Z,14.58
2023-05-25T04:47:22.635Z,14.67
2023-05-25T04:49:49.115Z,14.72
2023-05-25T04:52:15.609Z,14.67
2023-05-25T04:54:43.478Z,14.73
2023-05-25T04:57:09.907Z,14.75
2023-05-25T04:59:36.320Z,14.93
2023-05-25T05:02:02.805Z,14.98
2023-05-25T05:04:29.284Z,15.00
2023-05-25T05:06:58.066Z,14.81
2023-05-25T05:09:25.633Z,14.88
2023-05-25T05:11:52.069Z,14.93
2023-05-25T05:14:18.620Z,14.80
2023-05-25T05:16:45.179Z,14.79
2023-05-25T05:19:11.684Z,14.70
2023-05-25T05:21:38.502Z,14.88
2023-05-25T05:24:05.148Z,14.98
2023-05-25T05:26:38.478Z,14.89
2023-05-25T05:29:14.524Z,15.11
2023-05-25T05:31:41.016Z,15.12
2023-05-25T05:34:07.490Z,14.79
2023-05-25T05:36:45.201Z,15.06
2023-05-25T05:39:19.600Z,15.04
2023-05-25T05:41:46.072Z,14.96
2023-05-25T05:44:12.499Z,15.04
2023-05-25T05:46:39.072Z,15.10
2023-05-25T05:49:05.508Z,14.99
2023-05-25T05:51:32.886Z,14.79
2023-05-25T05:53:59.339Z,14.95
2023-05-25T05:56:26.370Z,14.79
2023-05-25T05:58:54.139Z,14.94
2023-05-25T06:01:21.935Z,14.88
2023-05-25T06:03:48.413Z,14.81
2023-05-25T06:06:15.958Z,14.85
2023-05-25T06:08:43.315Z,14.69
2023-05-25T06:11:09.748Z,14.39
2023-05-25T06:13:36.189Z,14.61
2023-05-25T06:16:02.667Z,14.34
2023-05-25T06:18:29.167Z,14.65
2023-05-25T06:20:55.584Z,14.47
2023-05-25T06:23:22.025Z,14.29
2023-05-25T06:25:48.525Z,14.71
2023-05-25T06:28:15.235Z,14.78
2023-05-25T06:30:41.773Z,14.58
2023-05-25T06:33:08.701Z,14.86
2023-05-25T06:35:35.243Z,14.54
2023-05-25T06:38:01.818Z,14.41
2023-05-25T06:40:28.290Z,14.48
2023-05-25T06:42:55.105Z,14.19
2023-05-25T06:45:21.532Z,14.30
2023-05-25T06:47:48.045Z,14.26
2023-05-25T06:50:14.514Z,14.02
2023-05-25T06:52:40.987Z,13.88
2023-05-25T06:55:08.750Z,14.17
2023-05-25T06:57:35.423Z,14.12
2023-05-25T07:00:02.066Z,14.38
2023-05-25T07:02:28.573Z,14.41
2023-05-25T07:04:55.414Z,14.39
2023-05-25T07:07:22.514Z,14.43
2023-05-25T07:09:49.042Z,14.48
2023-05-25T07:12:15.507Z,14.49
2023-05-25T07:14:42.079Z,14.59
2023-05-25T07:17:08.532Z,14.72
2023-05-25T07:19:34.988Z,14.58
2023-05-25T07:22:01.416Z,14.64
2023-05-25T07:24:27.868Z,14.72
2023-05-25T07:26:54.331Z,14.86
2023-05-25T07:29:20.954Z,14.77
2023-05-25T07:31:47.496Z,15.00
2023-05-25T07:34:14.045Z,15.00
2023-05-25T07:36:40.554Z,15.32
2023-05-25T07:39:07.005Z,15.43
2023-05-25T07:41:33.769Z,15.49
2023-05-25T07:44:00.274Z,15.37
2023-05-25T07:46:26.828Z,15.48
2023-05-25T07:48:54.624Z,15.35
2023-05-25T07:51:23.315Z,15.59
2023-05-25T07:53:49.819Z,15.31
2023-05-25T07:56:16.264Z,15.51
2023-05-25T07:58:42.796Z,15.28
2023-05-25T08:01:09.263Z,15.53
2023-05-25T08:03:48.099Z,15.60
2023-05-25T08:06:15.769Z,15.64
2023-05-25T08:08:44.908Z,15.67
2023-05-25T08:11:11.690Z,15.35
2023-05-25T08:13:39.042Z,15.44
2023-05-25T08:16:05.747Z,15.81
2023-05-25T08:18:33.273Z,15.88
2023-05-25T08:20:59.804Z,15.89
2023-05-25T08:23:26.318Z,16.00
2023-05-25T08:25:53.449Z,15.87
2023-05-25T08:28:22.901Z,15.98
2023-05-25T08:30:49.490Z,16.07
2023-05-25T08:33:16.000Z,16.14
2023-05-25T08:35:43.185Z,16.07
2023-05-25T08:38:09.870Z,16.18
2023-05-25T08:40:36.701Z,16.49
2023-05-25T08:43:03.196Z,16.48
2023-05-25T08:45:35.568Z,16.63
2023-05-25T08:48:10.697Z,17.04
2023-05-25T08:50:38.682Z,17.05
2023-05-25T08:53:07.855Z,16.81
2023-05-25T08:55:39.239Z,16.74
2023-05-25T08:58:19.322Z,16.96
2023-05-25T09:00:55.168Z,16.72
2023-05-25T09:03:22.163Z,16.74
2023-05-25T09:05:50.028Z,16.73
2023-05-25T09:08:17.521Z,16.50
2023-05-25T09:10:43.995Z,16.46
2023-05-25T09:13:21.255Z,16.34
2023-05-25T09:15:49.363Z,16.29
2023-05-25T09:18:16.000Z,16.24
2023-05-25T09:20:45.951Z,16.26
2023-05-25T09:23:14.416Z,16.08
2023-05-25T09:25:41.556Z,16.16
2023-05-25T09:28:25.609Z,16.13
2023-05-25T09:30:53.870Z,16.15
2023-05-25T09:33:20.660Z,16.13
2023-05-25T09:35:48.081Z,16.27
2023-05-25T09:38:17.544Z,16.38
2023-05-25T09:40:45.252Z,16.18
2023-05-25T09:43:17.265Z,16.25
2023-05-25T09:45:49.059Z,16.37
2023-05-25T09:48:15.837Z,16.69
2023-05-25T09:50:43.294Z,16.75
2023-05-25T09:53:11.091Z,16.75
2023-05-25T09:55:52.365Z,16.73
2023-05-25T09:58:23.589Z,16.74
2023-05-25T10:00:54.602Z,16.45
2023-05-25T10:03:21.791Z,16.65
2023-05-25T10:05:49.214Z,16.62
2023-05-25T10:08:20.000Z,16.73
2023-05-25T10:10:49.861Z,16.87
2023-05-25T10:13:20.853Z,16.38
2023-05-25T10:15:51.467Z,16.86
2023-05-25T10:18:23.143Z,17.08
2023-05-25T10:20:55.001Z,17.00
2023-05-25T10:23:24.184Z,17.03
2023-05-25T10:25:54.049Z,17.39
2023-05-25T10:28:31.328Z,17.49
2023-05-25T10:30:59.218Z,16.82
2023-05-25T10:33:26.071Z,17.63
2023-05-25T10:36:03.172Z,17.52
2023-05-25T10:38:39.285Z,17.60
2023-05-25T10:41:06.520Z,17.53
2023-05-25T10:43:33.490Z,17.23
2023-05-25T10:46:00.690Z,17.16
2023-05-25T10:48:39.503Z,17.01
2023-05-25T10:51:11.868Z,16.67
2023-05-25T10:53:38.899Z,17.02
2023-05-25T10:56:07.364Z,17.04
2023-05-25T10:58:34.431Z,16.95
2023-05-25T11:01:08.224Z,16.64
2023-05-25T11:03:44.031Z,17.12
2023-05-25T11:06:18.070Z,17.10
2023-05-25T11:09:02.005Z,17.08
2023-05-25T11:11:48.803Z,17.09
2023-05-25T11:14:38.595Z,17.03
2023-05-25T11:17:10.683Z,17.04
2023-05-25T11:19:50.747Z,17.13
2023-05-25T11:22:21.144Z,17.25
2023-05-25T11:24:49.423Z,17.29
2023-05-25T11:27:21.758Z,17.22
2023-05-25T11:29:51.530Z,17.23
2023-05-25T11:32:18.073Z,16.85
2023-05-25T11:34:46.835Z,17.17
2023-05-25T11:37:17.217Z,17.14
2023-05-25T11:39:48.247Z,16.84
2023-05-25T11:42:15.615Z,16.61
2023-05-25T11:44:42.333Z,16.98
2023-05-25T11:47:13.416Z,17.02
2023-05-25T11:49:47.352Z,16.80
2023-05-25T11:52:18.447Z,16.62
2023-05-25T11:54:45.899Z,16.88
2023-05-25T11:57:21.495Z,16.91
2023-05-25T11:59:53.072Z,17.01
2023-05-25T12:02:21.057Z,17.08
2023-05-25T12:04:55.257Z,17.28
2023-05-25T12:07:21.891Z,17.48
2023-05-25T12:09:48.506Z,17.53
2023-05-25T12:12:15.130Z,17.55
2023-05-25T12:14:51.280Z,17.48
2023-05-25T12:17:21.359Z,17.70
2023-05-25T12:19:48.409Z,17.73
2023-05-25T12:22:16.299Z,17.62
2023-05-25T12:24:42.969Z,17.56
2023-05-25T12:27:20.417Z,17.61
2023-05-25T12:29:47.860Z,17.44
2023-05-25T12:32:14.380Z,17.58
2023-05-25T12:34:40.979Z,17.52
2023-05-25T12:37:21.097Z,17.06
2023-05-25T12:39:48.304Z,17.62
2023-05-25T12:42:16.418Z,17.13
2023-05-25T12:44:44.498Z,17.44
2023-05-25T12:47:19.882Z,17.70
2023-05-25T12:50:24.736Z,17.70
2023-05-25T12:52:51.230Z,17.52
2023-05-25T12:55:27.550Z,17.69
2023-05-25T12:58:02.847Z,17.62
2023-05-25T13:00:37.660Z,17.37
2023-05-25T13:03:07.318Z,17.58
2023-05-25T13:05:36.739Z,17.29
2023-05-25T13:08:05.331Z,17.18
2023-05-25T13:10:33.140Z,17.73
2023-05-25T13:13:00.065Z,17.77
2023-05-25T13:15:27.152Z,17.73
2023-05-25T13:17:56.411Z,17.09
2023-05-25T13:20:25.116Z,17.70
2023-05-25T13:22:52.964Z,17.91
2023-05-25T13:25:21.996Z,17.72
2023-05-25T13:27:50.463Z,17.84
2023-05-25T13:30:17.858Z,18.45
2023-05-25T13:32:44.967Z,19.03
2023-05-25T13:35:18.668Z,19.06
2023-05-25T13:37:48.424Z,18.52
2023-05-25T13:40:15.001Z,18.74
2023-05-25T13:42:41.480Z,18.63
2023-05-25T13:45:08.739Z,18.46
2023-05-25T13:47:35.383Z,19.29
2023-05-25T13:50:02.229Z,19.38
2023-05-25T13:52:28.683Z,19.93
2023-05-25T13:54:55.232Z,19.85
2023-05-25T13:57:22.573Z,19.88
2023-05-25T13:59:49.201Z,20.12
2023-05-25T14:02:16.026Z,20.65
2023-05-25T14:04:42.668Z,20.49
2023-05-25T14:07:09.240Z,20.02
2023-05-25T14:09:35.699Z,20.79
2023-05-25T14:12:03.077Z,20.57
2023-05-25T14:14:31.884Z,20.91
2023-05-25T14:16:58.970Z,21.02
2023-05-25T14:19:25.460Z,20.50
2023-05-25T14:22:03.829Z,20.27
2023-05-25T14:24:38.083Z,20.56
2023-05-25T14:27:04.963Z,20.91
2023-05-25T14:29:31.436Z,20.99
2023-05-25T14:31:58.094Z,21.54
2023-05-25T14:34:24.760Z,21.13
2023-05-25T14:36:51.308Z,20.94
2023-05-25T14:39:17.734Z,21.36
2023-05-25T14:41:44.515Z,21.20
2023-05-25T14:44:14.367Z,21.29
2023-05-25T14:46:40.912Z,21.07
2023-05-25T14:49:07.444Z,20.84
2023-05-25T14:51:34.028Z,20.86
2023-05-25T14:54:01.364Z,21.25
2023-05-25T14:56:28.436Z,21.44
2023-05-25T14:58:54.962Z,21.06
2023-05-25T15:01:23.703Z,20.67
2023-05-25T15:03:51.870Z,20.30
2023-05-25T15:06:18.516Z,20.04
2023-05-25T15:08:45.080Z,19.81
2023-05-25T15:11:11.662Z,18.95
2023-05-25T15:13:41.003Z,19.27
2023-05-25T15:16:12.019Z,18.63
2023-05-25T15:18:38.797Z,19.01
2023-05-25T15:21:06.052Z,18.96
2023-05-25T15:23:36.359Z,19.03
2023-05-25T15:26:07.805Z,19.23
2023-05-25T15:28:34.584Z,19.00
2023-05-25T15:31:03.152Z,18.54
2023-05-25T15:33:43.616Z,18.54
2023-05-25T15:36:16.516Z,18.72
2023-05-25T15:38:44.330Z,18.68
2023-05-25T15:41:14.551Z,18.73
2023-05-25T15:43:41.420Z,19.00
2023-05-25T15:46:07.994Z,19.38
2023-05-25T15:48:34.519Z,19.60
2023-05-25T15:51:01.033Z,19.76
2023-05-25T15:53:27.479Z,19.65
2023-05-25T15:55:53.951Z,19.96
2023-05-25T15:58:20.537Z,20.05
2023-05-25T16:00:47.012Z,19.92
2023-05-25T16:03:13.469Z,20.12
2023-05-25T16:05:40.071Z,20.22
2023-05-25T16:08:06.498Z,20.27
2023-05-25T16:10:32.991Z,20.13
2023-05-25T16:12:59.457Z,20.06
2023-05-25T16:15:26.215Z,19.90
2023-05-25T16:17:52.729Z,19.57
2023-05-25T16:20:19.314Z,19.39
2023-05-25T16:22:45.973Z,19.44
2023-05-25T16:25:12.438Z,19.11
2023-05-25T16:27:38.898Z,19.21
2023-05-25T16:30:06.406Z,19.12
2023-05-25T16:32:33.072Z,19.07
2023-05-25T16:34:59.687Z,18.71
2023-05-25T16:37:26.179Z,18.89
2023-05-25T16:39:52.685Z,18.87
2023-05-25T16:42:19.513Z,18.88
2023-05-25T16:44:45.977Z,18.82
2023-05-25T16:47:12.470Z,18.81
2023-05-25T16:49:38.909Z,18.30
2023-05-25T16:52:05.758Z,18.15
2023-05-25T16:54:32.237Z,18.48
2023-05-25T16:56:58.695Z,18.37
2023-05-25T16:59:25.253Z,18.25
2023-05-25T17:01:51.957Z,18.25
2023-05-25T17:04:18.544Z,18.15
2023-05-25T17:06:45.066Z,17.95
2023-05-25T17:09:12.000Z,17.60
2023-05-25T17:11:38.531Z,17.55
2023-05-25T17:14:04.988Z,17.59
2023-05-25T17:16:31.480Z,17.60
2023-05-25T17:18:58.107Z,17.40
2023-05-25T17:21:24.547Z,17.27
2023-05-25T17:23:50.986Z,17.21
2023-05-25T17:26:17.476Z,17.28
2023-05-25T17:28:43.997Z,17.21
2023-05-25T17:31:10.565Z,17.01
2023-05-25T17:33:38.754Z,16.48
2023-05-25T17:36:05.829Z,16.36
2023-05-25T17:38:34.377Z,16.66
2023-05-25T17:41:00.871Z,16.98
2023-05-25T17:43:27.442Z,16.89
2023-05-25T17:45:53.958Z,16.59
2023-05-25T17:48:20.583Z,17.00
2023-05-25T17:50:47.172Z,17.03
2023-05-25T17:53:13.640Z,17.05
2023-05-25T17:55:40.255Z,16.96
2023-05-25T17:58:07.196Z,16.84
2023-05-25T18:00:33.706Z,16.96
2023-05-25T18:03:00.334Z,16.49
2023-05-25T18:05:26.883Z,15.70
2023-05-25T18:07:53.319Z,16.29
2023-05-25T18:10:19.783Z,16.34
2023-05-25T18:12:49.199Z,16.04
2023-05-25T18:15:15.778Z,16.15
2023-05-25T18:17:42.299Z,16.10
2023-05-25T18:20:09.578Z,15.99
2023-05-25T18:22:36.430Z,15.68
2023-05-25T18:25:03.752Z,15.59
2023-05-25T18:27:30.220Z,15.76
2023-05-25T18:29:56.671Z,15.75
2023-05-25T18:32:23.153Z,15.61
2023-05-25T18:34:49.702Z,15.63
2023-05-25T18:37:16.144Z,15.58
2023-05-25T18:39:43.453Z,15.65
2023-05-25T18:42:10.194Z,15.46
2023-05-25T18:44:36.711Z,15.09
2023-05-25T18:47:03.233Z,15.07
2023-05-25T18:49:33.642Z,15.36
2023-05-25T18:52:01.488Z,15.44
2023-05-25T18:54:28.237Z,15.21
2023-05-25T18:56:54.692Z,15.22
2023-05-25T18:59:21.405Z,15.25
2023-05-25T19:01:47.873Z,15.25
2023-05-25T19:04:14.516Z,15.04
2023-05-25T19:06:41.119Z,15.14
2023-05-25T19:09:07.577Z,15.10
2023-05-25T19:11:34.026Z,14.91
2023-05-25T19:14:00.517Z,15.00
2023-05-25T19:16:27.050Z,14.92
2023-05-25T19:18:53.649Z,14.63
2023-05-25T19:21:20.328Z,14.45
2023-05-25T19:23:46.780Z,14.59
2023-05-25T19:26:13.378Z,14.47
2023-05-25T19:28:39.843Z,14.38
2023-05-25T19:31:06.323Z,14.39
2023-05-25T19:33:32.846Z,14.60
2023-05-25T19:35:59.405Z,14.52
2023-05-25T19:38:28.776Z,14.52
2023-05-25T19:41:00.911Z,14.21
2023-05-25T19:43:27.433Z,14.22
2023-05-25T19:45:53.952Z,14.18
2023-05-25T19:48:20.714Z,14.02
2023-05-25T19:50:47.180Z,13.94
2023-05-25T19:53:13.623Z,14.02
2023-05-25T19:55:40.126Z,13.75
2023-05-25T19:58:06.671Z,13.24
2023-05-25T20:00:33.160Z,13.79
2023-05-25T20:02:59.747Z,13.35
2023-05-25T20:05:26.400Z,13.77
2023-05-25T20:07:53.252Z,13.39
2023-05-25T20:10:20.133Z,13.56
2023-05-25T20:12:46.835Z,13.73
2023-05-25T20:15:13.425Z,13.42
2023-05-25T20:17:40.138Z,13.44
2023-05-25T20:20:07.239Z,13.40
2023-05-25T20:22:33.849Z,13.45
2023-05-25T20:25:01.005Z,13.60
2023-05-25T20:27:27.907Z,13.35
2023-05-25T20:29:54.876Z,13.40
2023-05-25T20:32:21.550Z,13.47
2023-05-25T20:34:48.081Z,13.48
2023-05-25T20:37:14.591Z,13.28
2023-05-25T20:39:41.026Z,13.20
2023-05-25T20:42:07.633Z,13.37
2023-05-25T20:44:34.095Z,13.20
2023-05-25T20:47:00.564Z,13.30
2023-05-25T20:49:26.981Z,13.18
2023-05-25T20:51:53.433Z,13.21
2023-05-25T20:54:19.890Z,13.11
2023-05-25T20:56:47.904Z,13.31
2023-05-25T20:59:14.384Z,12.91
2023-05-25T21:01:40.991Z,12.99
2023-05-25T21:04:07.701Z,12.97
2023-05-25T21:06:34.268Z,13.01
2023-05-25T21:09:01.586Z,12.79
2023-05-25T21:11:28.676Z,12.73
2023-05-25T21:13:55.631Z,12.96
2023-05-25T21:16:22.107Z,12.92
2023-05-25T21:18:48.608Z,12.89
2023-05-25T21:21:16.072Z,12.84
2023-05-25T21:23:42.647Z,12.83
2023-05-25T21:26:09.093Z,12.83
2023-05-25T21:28:35.524Z,12.59
2023-05-25T21:31:02.103Z,12.68
2023-05-25T21:33:30.899Z,12.52
2023-05-25T21:35:57.435Z,12.65
2023-05-25T21:38:23.912Z,12.52
2023-05-25T21:40:50.349Z,12.59
2023-05-25T21:43:16.826Z,12.49
2023-05-25T21:45:43.628Z,12.13
2023-05-25T21:48:10.378Z,12.34
2023-05-25T21:50:36.908Z,12.38
2023-05-25T21:53:03.394Z,12.45
2023-05-25T21:55:29.852Z,11.90
2023-05-25T21:57:56.351Z,11.78
2023-05-25T22:00:24.551Z,11.71
2023-05-25T22:02:51.927Z,11.48
2023-05-25T22:05:18.666Z,12.17
2023-05-25T22:07:46.218Z,12.16
2023-05-25T22:10:15.601Z,10.86
2023-05-25T22:12:42.777Z,12.14
2023-05-25T22:15:16.612Z,10.89
2023-05-25T22:17:49.148Z,11.51
2023-05-25T22:23:36.446Z,12.03
2023-05-25T22:26:06.071Z,11.53
2023-05-25T22:28:33.283Z,10.49
2023-05-25T22:39:28.563Z,10.85
2023-05-25T22:41:55.298Z,10.51
2023-05-25T22:44:22.227Z,10.86
2023-05-25T22:46:48.855Z,10.65
2023-05-25T22:49:18.747Z,11.68
2023-05-25T22:51:45.438Z,11.01
2023-05-25T22:54:13.281Z,11.11
2023-05-25T22:56:39.796Z,10.36
2023-05-25T22:59:06.751Z,10.95
2023-05-25T23:01:33.389Z,10.97
2023-05-25T23:04:00.135Z,11.09
2023-05-25T23:06:26.928Z,10.89
2023-05-25T23:08:55.679Z,11.05
2023-05-25T23:11:22.860Z,11.01
2023-05-25T23:13:58.168Z,9.99
2023-05-25T23:16:26.603Z,10.29
2023-05-25T23:18:53.529Z,10.59
2023-05-25T23:21:20.269Z,10.58
2023-05-25T23:23:47.966Z,10.77
2023-05-25T23:26:14.627Z,10.46
2023-05-25T23:28:44.273Z,10.86
2023-05-25T23:39:10.660Z,10.74
2023-05-25T23:42:16.047Z,11.16
2023-05-25T23:44:43.267Z,9.90
2023-05-25T23:49:49.083Z,9.79
2023-05-25T23:52:23.240Z,9.73
2023-05-25T23:55:06.615Z,9.84
2023-05-25T23:57:43.367Z,10.65
